sensor_id;sensor_type;location;lat;lon;timestamp;P1;durP1;ratioP1;P2;durP2;ratioP2
54368;SDS011;40266;52.434;17.056;2023-06-01T00:00:41;12.90;;;4.80;;
54368;SDS011;40266;52.434;17.056;2023-06-01T00:03:47;17.30;;;5.20;;
54368;SDS011;40266;52.434;17.056;2023-06-01T00:06:30;15.10;;;5.40;;
54368;SDS011;40266;52.434;17.056;2023-06-01T00:09:14;13.90;;;5.60;;
54368;SDS011;40266;52.434;17.056;2023-06-01T00:11:57;15.10;;;5.60;;
54368;SDS011;40266;52.434;17.056;2023-06-01T00:14:40;49.40;;;9.70;;
54368;SDS011;40266;52.434;17.056;2023-06-01T00:17:23;91.30;;;15.30;;
54368;SDS011;40266;52.434;17.056;2023-06-01T00:20:06;98.70;;;15.30;;
54368;SDS011;40266;52.434;17.056;2023-06-01T00:22:52;68.80;;;11.60;;
54368;SDS011;40266;52.434;17.056;2023-06-01T00:25:37;63.20;;;10.50;;
54368;SDS011;40266;52.434;17.056;2023-06-01T00:28:20;50.30;;;12.60;;
54368;SDS011;40266;52.434;17.056;2023-06-01T00:31:03;41.50;;;8.60;;
54368;SDS011;40266;52.434;17.056;2023-06-01T00:33:46;44.60;;;8.20;;
54368;SDS011;40266;52.434;17.056;2023-06-01T00:36:29;43.70;;;8.70;;
54368;SDS011;40266;52.434;17.056;2023-06-01T00:39:13;31.40;;;7.20;;
54368;SDS011;40266;52.434;17.056;2023-06-01T00:41:56;26.60;;;7.50;;
54368;SDS011;40266;52.434;17.056;2023-06-01T00:44:40;35.80;;;7.50;;
54368;SDS011;40266;52.434;17.056;2023-06-01T00:47:23;27.40;;;6.70;;
54368;SDS011;40266;52.434;17.056;2023-06-01T00:50:06;33.40;;;7.80;;
54368;SDS011;40266;52.434;17.056;2023-06-01T00:52:49;27.30;;;8.60;;
54368;SDS011;40266;52.434;17.056;2023-06-01T00:55:34;29.00;;;7.80;;
54368;SDS011;40266;52.434;17.056;2023-06-01T00:58:17;27.30;;;6.90;;
54368;SDS011;40266;52.434;17.056;2023-06-01T01:01:00;25.10;;;6.40;;
54368;SDS011;40266;52.434;17.056;2023-06-01T01:03:46;16.70;;;6.10;;
54368;SDS011;40266;52.434;17.056;2023-06-01T01:07:07;18.00;;;7.20;;
54368;SDS011;40266;52.434;17.056;2023-06-01T01:10:03;19.10;;;6.70;;
54368;SDS011;40266;52.434;17.056;2023-06-01T01:16:26;21.60;;;6.10;;
54368;SDS011;40266;52.434;17.056;2023-06-01T01:29:08;24.30;;;6.40;;
54368;SDS011;40266;52.434;17.056;2023-06-01T01:31:53;19.00;;;5.90;;
54368;SDS011;40266;52.434;17.056;2023-06-01T01:34:38;14.80;;;6.40;;
54368;SDS011;40266;52.434;17.056;2023-06-01T01:37:26;14.20;;;5.60;;
54368;SDS011;40266;52.434;17.056;2023-06-01T01:40:09;18.50;;;5.70;;
54368;SDS011;40266;52.434;17.056;2023-06-01T01:42:53;16.30;;;5.90;;
54368;SDS011;40266;52.434;17.056;2023-06-01T01:45:39;17.20;;;5.80;;
54368;SDS011;40266;52.434;17.056;2023-06-01T01:48:23;14.10;;;6.00;;
54368;SDS011;40266;52.434;17.056;2023-06-01T01:51:44;16.80;;;5.90;;
54368;SDS011;40266;52.434;17.056;2023-06-01T01:54:52;22.90;;;6.40;;
54368;SDS011;40266;52.434;17.056;2023-06-01T01:57:38;25.90;;;6.80;;
54368;SDS011;40266;52.434;17.056;2023-06-01T02:00:23;29.10;;;7.60;;
54368;SDS011;40266;52.434;17.056;2023-06-01T02:03:12;21.70;;;7.10;;
54368;SDS011;40266;52.434;17.056;2023-06-01T02:05:59;19.80;;;6.20;;
54368;SDS011;40266;52.434;17.056;2023-06-01T02:08:42;26.20;;;6.60;;
54368;SDS011;40266;52.434;17.056;2023-06-01T02:11:25;24.10;;;7.00;;
54368;SDS011;40266;52.434;17.056;2023-06-01T02:14:09;26.60;;;8.00;;
54368;SDS011;40266;52.434;17.056;2023-06-01T02:16:53;26.70;;;7.80;;
54368;SDS011;40266;52.434;17.056;2023-06-01T02:19:36;28.20;;;7.20;;
54368;SDS011;40266;52.434;17.056;2023-06-01T02:22:20;30.40;;;8.40;;
54368;SDS011;40266;52.434;17.056;2023-06-01T02:25:03;29.80;;;7.40;;
54368;SDS011;40266;52.434;17.056;2023-06-01T02:27:47;37.40;;;8.40;;
54368;SDS011;40266;52.434;17.056;2023-06-01T02:30:31;35.70;;;8.40;;
54368;SDS011;40266;52.434;17.056;2023-06-01T02:33:14;30.80;;;7.40;;
54368;SDS011;40266;52.434;17.056;2023-06-01T02:35:58;36.00;;;8.60;;
54368;SDS011;40266;52.434;17.056;2023-06-01T02:38:43;26.50;;;7.00;;
54368;SDS011;40266;52.434;17.056;2023-06-01T02:41:27;30.60;;;9.50;;
54368;SDS011;40266;52.434;17.056;2023-06-01T02:44:11;31.80;;;9.00;;
54368;SDS011;40266;52.434;17.056;2023-06-01T02:46:55;26.30;;;8.10;;
54368;SDS011;40266;52.434;17.056;2023-06-01T02:49:40;29.00;;;8.50;;
54368;SDS011;40266;52.434;17.056;2023-06-01T02:52:25;20.80;;;7.20;;
54368;SDS011;40266;52.434;17.056;2023-06-01T02:55:09;19.50;;;7.60;;
54368;SDS011;40266;52.434;17.056;2023-06-01T02:58:25;21.30;;;7.50;;
54368;SDS011;40266;52.434;17.056;2023-06-01T03:01:18;19.00;;;7.30;;
54368;SDS011;40266;52.434;17.056;2023-06-01T03:04:04;20.00;;;7.80;;
54368;SDS011;40266;52.434;17.056;2023-06-01T03:06:49;21.80;;;7.50;;
54368;SDS011;40266;52.434;17.056;2023-06-01T03:09:55;12.30;;;6.50;;
54368;SDS011;40266;52.434;17.056;2023-06-01T03:13:11;20.50;;;8.70;;
54368;SDS011;40266;52.434;17.056;2023-06-01T03:15:57;15.90;;;7.30;;
54368;SDS011;40266;52.434;17.056;2023-06-01T03:18:42;21.40;;;7.00;;
54368;SDS011;40266;52.434;17.056;2023-06-01T03:21:25;20.50;;;7.50;;
54368;SDS011;40266;52.434;17.056;2023-06-01T03:24:10;17.10;;;7.50;;
54368;SDS011;40266;52.434;17.056;2023-06-01T03:26:55;17.90;;;7.20;;
54368;SDS011;40266;52.434;17.056;2023-06-01T03:29:39;25.00;;;7.90;;
54368;SDS011;40266;52.434;17.056;2023-06-01T03:32:23;22.10;;;6.80;;
54368;SDS011;40266;52.434;17.056;2023-06-01T03:35:09;25.10;;;7.10;;
54368;SDS011;40266;52.434;17.056;2023-06-01T03:37:53;24.90;;;7.20;;
54368;SDS011;40266;52.434;17.056;2023-06-01T03:40:37;23.00;;;7.50;;
54368;SDS011;40266;52.434;17.056;2023-06-01T03:43:20;28.70;;;8.30;;
54368;SDS011;40266;52.434;17.056;2023-06-01T03:46:04;24.60;;;7.00;;
54368;SDS011;40266;52.434;17.056;2023-06-01T03:48:50;22.30;;;7.10;;
54368;SDS011;40266;52.434;17.056;2023-06-01T03:51:35;33.30;;;7.90;;
54368;SDS011;40266;52.434;17.056;2023-06-01T03:54:19;41.40;;;9.60;;
54368;SDS011;40266;52.434;17.056;2023-06-01T03:57:04;27.10;;;8.50;;
54368;SDS011;40266;52.434;17.056;2023-06-01T03:59:48;29.40;;;7.80;;
54368;SDS011;40266;52.434;17.056;2023-06-01T04:02:32;24.60;;;8.00;;
54368;SDS011;40266;52.434;17.056;2023-06-01T04:05:16;26.20;;;7.30;;
54368;SDS011;40266;52.434;17.056;2023-06-01T04:08:00;22.90;;;7.30;;
54368;SDS011;40266;52.434;17.056;2023-06-01T04:10:43;29.50;;;7.70;;
54368;SDS011;40266;52.434;17.056;2023-06-01T04:13:27;33.90;;;8.80;;
54368;SDS011;40266;52.434;17.056;2023-06-01T04:16:13;38.40;;;9.30;;
54368;SDS011;40266;52.434;17.056;2023-06-01T04:18:59;48.90;;;10.00;;
54368;SDS011;40266;52.434;17.056;2023-06-01T04:21:46;48.40;;;9.90;;
54368;SDS011;40266;52.434;17.056;2023-06-01T04:24:31;53.70;;;9.20;;
54368;SDS011;40266;52.434;17.056;2023-06-01T04:27:16;70.40;;;12.60;;
54368;SDS011;40266;52.434;17.056;2023-06-01T04:30:00;59.90;;;12.00;;
54368;SDS011;40266;52.434;17.056;2023-06-01T04:32:44;53.40;;;10.60;;
54368;SDS011;40266;52.434;17.056;2023-06-01T04:35:34;34.70;;;8.50;;
54368;SDS011;40266;52.434;17.056;2023-06-01T04:38:20;24.40;;;6.10;;
54368;SDS011;40266;52.434;17.056;2023-06-01T04:41:04;21.10;;;6.00;;
54368;SDS011;40266;52.434;17.056;2023-06-01T04:43:48;15.30;;;4.80;;
54368;SDS011;40266;52.434;17.056;2023-06-01T04:46:37;13.80;;;6.30;;
54368;SDS011;40266;52.434;17.056;2023-06-01T04:49:23;17.20;;;5.30;;
54368;SDS011;40266;52.434;17.056;2023-06-01T04:52:09;15.00;;;5.20;;
54368;SDS011;40266;52.434;17.056;2023-06-01T04:54:53;10.10;;;4.50;;
54368;SDS011;40266;52.434;17.056;2023-06-01T04:57:36;15.40;;;4.60;;
54368;SDS011;40266;52.434;17.056;2023-06-01T05:00:22;15.10;;;5.20;;
54368;SDS011;40266;52.434;17.056;2023-06-01T05:03:06;19.80;;;4.60;;
54368;SDS011;40266;52.434;17.056;2023-06-01T05:05:51;20.00;;;4.60;;
54368;SDS011;40266;52.434;17.056;2023-06-01T05:08:36;16.30;;;5.50;;
54368;SDS011;40266;52.434;17.056;2023-06-01T05:11:20;15.10;;;5.50;;
54368;SDS011;40266;52.434;17.056;2023-06-01T05:14:04;15.30;;;5.30;;
54368;SDS011;40266;52.434;17.056;2023-06-01T05:16:49;17.00;;;5.90;;
54368;SDS011;40266;52.434;17.056;2023-06-01T05:19:33;15.60;;;4.40;;
54368;SDS011;40266;52.434;17.056;2023-06-01T05:22:17;9.10;;;4.60;;
54368;SDS011;40266;52.434;17.056;2023-06-01T05:25:01;11.30;;;3.60;;
54368;SDS011;40266;52.434;17.056;2023-06-01T05:27:45;9.50;;;3.40;;
54368;SDS011;40266;52.434;17.056;2023-06-01T05:30:29;11.60;;;3.90;;
54368;SDS011;40266;52.434;17.056;2023-06-01T05:33:13;9.00;;;3.80;;
54368;SDS011;40266;52.434;17.056;2023-06-01T05:35:56;16.60;;;4.50;;
54368;SDS011;40266;52.434;17.056;2023-06-01T05:38:41;26.40;;;5.10;;
54368;SDS011;40266;52.434;17.056;2023-06-01T05:41:25;8.00;;;3.30;;
54368;SDS011;40266;52.434;17.056;2023-06-01T05:44:09;8.00;;;3.30;;
54368;SDS011;40266;52.434;17.056;2023-06-01T05:46:53;6.00;;;2.80;;
54368;SDS011;40266;52.434;17.056;2023-06-01T05:49:37;8.70;;;3.60;;
54368;SDS011;40266;52.434;17.056;2023-06-01T05:52:22;14.70;;;3.90;;
54368;SDS011;40266;52.434;17.056;2023-06-01T05:55:06;8.10;;;3.40;;
54368;SDS011;40266;52.434;17.056;2023-06-01T05:57:50;7.50;;;3.70;;
54368;SDS011;40266;52.434;17.056;2023-06-01T06:00:34;9.60;;;3.90;;
54368;SDS011;40266;52.434;17.056;2023-06-01T06:03:19;7.60;;;3.30;;
54368;SDS011;40266;52.434;17.056;2023-06-01T06:06:08;10.60;;;3.60;;
54368;SDS011;40266;52.434;17.056;2023-06-01T06:08:51;11.60;;;3.50;;
54368;SDS011;40266;52.434;17.056;2023-06-01T06:11:35;6.30;;;3.20;;
54368;SDS011;40266;52.434;17.056;2023-06-01T06:14:19;9.40;;;3.00;;
54368;SDS011;40266;52.434;17.056;2023-06-01T06:17:03;13.00;;;3.30;;
54368;SDS011;40266;52.434;17.056;2023-06-01T06:19:46;13.00;;;3.80;;
54368;SDS011;40266;52.434;17.056;2023-06-01T06:22:31;8.30;;;3.40;;
54368;SDS011;40266;52.434;17.056;2023-06-01T06:25:15;13.20;;;4.20;;
54368;SDS011;40266;52.434;17.056;2023-06-01T06:27:58;15.30;;;4.10;;
54368;SDS011;40266;52.434;17.056;2023-06-01T06:30:42;9.10;;;3.60;;
54368;SDS011;40266;52.434;17.056;2023-06-01T06:33:26;9.40;;;3.80;;
54368;SDS011;40266;52.434;17.056;2023-06-01T06:36:10;10.70;;;3.60;;
54368;SDS011;40266;52.434;17.056;2023-06-01T06:38:54;11.40;;;4.00;;
54368;SDS011;40266;52.434;17.056;2023-06-01T06:41:39;10.60;;;3.30;;
54368;SDS011;40266;52.434;17.056;2023-06-01T06:44:23;17.10;;;4.90;;
54368;SDS011;40266;52.434;17.056;2023-06-01T06:47:08;10.80;;;3.70;;
54368;SDS011;40266;52.434;17.056;2023-06-01T06:49:53;8.20;;;3.50;;
54368;SDS011;40266;52.434;17.056;2023-06-01T06:52:37;22.20;;;5.40;;
54368;SDS011;40266;52.434;17.056;2023-06-01T06:55:20;13.00;;;3.60;;
54368;SDS011;40266;52.434;17.056;2023-06-01T06:58:05;8.70;;;3.50;;
54368;SDS011;40266;52.434;17.056;2023-06-01T07:00:49;10.30;;;3.70;;
54368;SDS011;40266;52.434;17.056;2023-06-01T07:03:34;8.80;;;3.60;;
54368;SDS011;40266;52.434;17.056;2023-06-01T07:06:19;16.90;;;4.10;;
54368;SDS011;40266;52.434;17.056;2023-06-01T07:09:03;23.10;;;4.80;;
54368;SDS011;40266;52.434;17.056;2023-06-01T07:11:50;12.50;;;3.90;;
54368;SDS011;40266;52.434;17.056;2023-06-01T07:14:33;8.50;;;3.40;;
54368;SDS011;40266;52.434;17.056;2023-06-01T07:17:18;11.40;;;3.30;;
54368;SDS011;40266;52.434;17.056;2023-06-01T07:20:02;26.40;;;4.30;;
54368;SDS011;40266;52.434;17.056;2023-06-01T07:22:49;15.10;;;4.90;;
54368;SDS011;40266;52.434;17.056;2023-06-01T07:25:33;11.10;;;3.70;;
54368;SDS011;40266;52.434;17.056;2023-06-01T07:28:18;13.00;;;3.50;;
54368;SDS011;40266;52.434;17.056;2023-06-01T07:31:01;13.30;;;3.50;;
54368;SDS011;40266;52.434;17.056;2023-06-01T07:33:46;13.80;;;3.60;;
54368;SDS011;40266;52.434;17.056;2023-06-01T07:36:29;9.80;;;3.40;;
54368;SDS011;40266;52.434;17.056;2023-06-01T07:39:16;10.90;;;3.40;;
54368;SDS011;40266;52.434;17.056;2023-06-01T07:41:59;10.00;;;3.40;;
54368;SDS011;40266;52.434;17.056;2023-06-01T07:44:45;11.30;;;3.90;;
54368;SDS011;40266;52.434;17.056;2023-06-01T07:47:31;9.90;;;3.40;;
54368;SDS011;40266;52.434;17.056;2023-06-01T07:50:14;10.00;;;4.40;;
54368;SDS011;40266;52.434;17.056;2023-06-01T07:52:58;10.70;;;3.40;;
54368;SDS011;40266;52.434;17.056;2023-06-01T07:55:43;9.70;;;3.40;;
54368;SDS011;40266;52.434;17.056;2023-06-01T07:58:26;7.10;;;3.60;;
54368;SDS011;40266;52.434;17.056;2023-06-01T08:01:10;15.40;;;4.10;;
54368;SDS011;40266;52.434;17.056;2023-06-01T08:03:53;19.90;;;3.60;;
54368;SDS011;40266;52.434;17.056;2023-06-01T08:06:39;17.90;;;4.40;;
54368;SDS011;40266;52.434;17.056;2023-06-01T08:09:24;12.80;;;3.10;;
54368;SDS011;40266;52.434;17.056;2023-06-01T08:12:07;12.80;;;4.30;;
54368;SDS011;40266;52.434;17.056;2023-06-01T08:14:51;11.90;;;3.50;;
54368;SDS011;40266;52.434;17.056;2023-06-01T08:17:34;14.00;;;4.30;;
54368;SDS011;40266;52.434;17.056;2023-06-01T08:20:19;12.40;;;3.60;;
54368;SDS011;40266;52.434;17.056;2023-06-01T08:23:05;17.50;;;3.90;;
54368;SDS011;40266;52.434;17.056;2023-06-01T08:25:49;13.20;;;3.90;;
54368;SDS011;40266;52.434;17.056;2023-06-01T08:28:33;10.90;;;3.40;;
54368;SDS011;40266;52.434;17.056;2023-06-01T08:31:20;10.40;;;3.00;;
54368;SDS011;40266;52.434;17.056;2023-06-01T08:34:05;14.10;;;3.70;;
54368;SDS011;40266;52.434;17.056;2023-06-01T08:36:50;6.50;;;3.10;;
54368;SDS011;40266;52.434;17.056;2023-06-01T08:39:39;17.30;;;4.60;;
54368;SDS011;40266;52.434;17.056;2023-06-01T08:42:34;11.10;;;3.90;;
54368;SDS011;40266;52.434;17.056;2023-06-01T08:45:28;9.20;;;3.70;;
54368;SDS011;40266;52.434;17.056;2023-06-01T08:48:13;11.70;;;2.70;;
54368;SDS011;40266;52.434;17.056;2023-06-01T08:51:06;11.40;;;4.10;;
54368;SDS011;40266;52.434;17.056;2023-06-01T08:53:50;10.90;;;3.40;;
54368;SDS011;40266;52.434;17.056;2023-06-01T08:56:35;7.40;;;3.10;;
54368;SDS011;40266;52.434;17.056;2023-06-01T08:59:25;12.20;;;4.00;;
54368;SDS011;40266;52.434;17.056;2023-06-01T09:02:09;25.70;;;5.50;;
54368;SDS011;40266;52.434;17.056;2023-06-01T09:04:52;7.50;;;3.00;;
54368;SDS011;40266;52.434;17.056;2023-06-01T09:07:36;8.90;;;3.10;;
54368;SDS011;40266;52.434;17.056;2023-06-01T09:10:23;9.60;;;3.50;;
54368;SDS011;40266;52.434;17.056;2023-06-01T09:13:09;10.50;;;4.00;;
54368;SDS011;40266;52.434;17.056;2023-06-01T09:15:55;12.00;;;3.60;;
54368;SDS011;40266;52.434;17.056;2023-06-01T09:18:54;9.50;;;3.60;;
54368;SDS011;40266;52.434;17.056;2023-06-01T09:21:38;7.90;;;3.50;;
54368;SDS011;40266;52.434;17.056;2023-06-01T09:24:22;13.30;;;3.70;;
54368;SDS011;40266;52.434;17.056;2023-06-01T09:27:05;6.80;;;3.30;;
54368;SDS011;40266;52.434;17.056;2023-06-01T09:29:56;7.40;;;3.10;;
54368;SDS011;40266;52.434;17.056;2023-06-01T09:32:43;6.80;;;3.00;;
54368;SDS011;40266;52.434;17.056;2023-06-01T09:38:22;5.50;;;3.10;;
54368;SDS011;40266;52.434;17.056;2023-06-01T09:41:08;12.40;;;3.50;;
54368;SDS011;40266;52.434;17.056;2023-06-01T09:43:52;7.70;;;3.30;;
54368;SDS011;40266;52.434;17.056;2023-06-01T09:46:45;10.80;;;3.50;;
54368;SDS011;40266;52.434;17.056;2023-06-01T09:49:36;10.60;;;2.90;;
54368;SDS011;40266;52.434;17.056;2023-06-01T09:52:22;14.40;;;4.20;;
54368;SDS011;40266;52.434;17.056;2023-06-01T09:55:07;8.10;;;3.90;;
54368;SDS011;40266;52.434;17.056;2023-06-01T09:57:52;11.60;;;3.60;;
54368;SDS011;40266;52.434;17.056;2023-06-01T10:00:35;7.90;;;3.50;;
54368;SDS011;40266;52.434;17.056;2023-06-01T10:03:20;8.40;;;3.10;;
54368;SDS011;40266;52.434;17.056;2023-06-01T10:06:07;7.70;;;3.10;;
54368;SDS011;40266;52.434;17.056;2023-06-01T10:08:53;12.90;;;3.70;;
54368;SDS011;40266;52.434;17.056;2023-06-01T10:11:38;12.20;;;4.10;;
54368;SDS011;40266;52.434;17.056;2023-06-01T10:14:22;9.20;;;3.30;;
54368;SDS011;40266;52.434;17.056;2023-06-01T10:17:07;9.10;;;2.80;;
54368;SDS011;40266;52.434;17.056;2023-06-01T10:19:51;7.90;;;3.70;;
54368;SDS011;40266;52.434;17.056;2023-06-01T10:22:43;43.80;;;8.40;;
54368;SDS011;40266;52.434;17.056;2023-06-01T10:25:47;10.80;;;3.90;;
54368;SDS011;40266;52.434;17.056;2023-06-01T10:28:35;8.20;;;3.40;;
54368;SDS011;40266;52.434;17.056;2023-06-01T10:37:33;9.60;;;3.20;;
54368;SDS011;40266;52.434;17.056;2023-06-01T10:40:20;10.20;;;3.90;;
54368;SDS011;40266;52.434;17.056;2023-06-01T10:43:04;5.80;;;2.80;;
54368;SDS011;40266;52.434;17.056;2023-06-01T10:45:49;9.90;;;3.50;;
54368;SDS011;40266;52.434;17.056;2023-06-01T10:48:53;11.60;;;3.50;;
54368;SDS011;40266;52.434;17.056;2023-06-01T10:51:38;7.10;;;3.40;;
54368;SDS011;40266;52.434;17.056;2023-06-01T10:57:23;10.20;;;3.70;;
54368;SDS011;40266;52.434;17.056;2023-06-01T11:03:04;9.70;;;4.60;;
54368;SDS011;40266;52.434;17.056;2023-06-01T11:05:49;16.70;;;4.40;;
54368;SDS011;40266;52.434;17.056;2023-06-01T11:11:17;11.30;;;4.90;;
54368;SDS011;40266;52.434;17.056;2023-06-01T11:14:06;16.90;;;5.50;;
54368;SDS011;40266;52.434;17.056;2023-06-01T11:16:53;12.80;;;5.80;;
54368;SDS011;40266;52.434;17.056;2023-06-01T11:19:42;11.40;;;5.30;;
54368;SDS011;40266;52.434;17.056;2023-06-01T11:22:25;16.90;;;6.10;;
54368;SDS011;40266;52.434;17.056;2023-06-01T11:25:16;14.00;;;5.30;;
54368;SDS011;40266;52.434;17.056;2023-06-01T11:28:00;15.80;;;5.70;;
54368;SDS011;40266;52.434;17.056;2023-06-01T11:30:43;12.70;;;5.80;;
54368;SDS011;40266;52.434;17.056;2023-06-01T11:33:27;14.80;;;6.20;;
54368;SDS011;40266;52.434;17.056;2023-06-01T11:36:13;14.30;;;5.60;;
54368;SDS011;40266;52.434;17.056;2023-06-01T11:38:59;14.90;;;5.20;;
54368;SDS011;40266;52.434;17.056;2023-06-01T11:42:07;15.70;;;6.40;;
54368;SDS011;40266;52.434;17.056;2023-06-01T11:44:58;10.90;;;5.30;;
54368;SDS011;40266;52.434;17.056;2023-06-01T11:47:42;13.70;;;5.60;;
54368;SDS011;40266;52.434;17.056;2023-06-01T11:50:29;15.30;;;5.70;;
54368;SDS011;40266;52.434;17.056;2023-06-01T11:53:15;15.90;;;5.20;;
54368;SDS011;40266;52.434;17.056;2023-06-01T11:55:58;11.80;;;5.30;;
54368;SDS011;40266;52.434;17.056;2023-06-01T11:58:42;10.40;;;5.20;;
54368;SDS011;40266;52.434;17.056;2023-06-01T12:01:27;13.20;;;5.00;;
54368;SDS011;40266;52.434;17.056;2023-06-01T12:04:14;11.80;;;4.60;;
54368;SDS011;40266;52.434;17.056;2023-06-01T12:07:05;16.10;;;5.80;;
54368;SDS011;40266;52.434;17.056;2023-06-01T12:09:50;11.60;;;5.30;;
54368;SDS011;40266;52.434;17.056;2023-06-01T12:12:38;10.60;;;4.80;;
54368;SDS011;40266;52.434;17.056;2023-06-01T12:15:21;12.90;;;5.30;;
54368;SDS011;40266;52.434;17.056;2023-06-01T12:18:05;11.30;;;5.00;;
54368;SDS011;40266;52.434;17.056;2023-06-01T12:20:49;11.00;;;4.60;;
54368;SDS011;40266;52.434;17.056;2023-06-01T12:23:33;11.50;;;4.50;;
54368;SDS011;40266;52.434;17.056;2023-06-01T12:26:17;11.90;;;4.40;;
54368;SDS011;40266;52.434;17.056;2023-06-01T12:29:01;9.10;;;5.00;;
54368;SDS011;40266;52.434;17.056;2023-06-01T12:31:53;10.70;;;5.00;;
54368;SDS011;40266;52.434;17.056;2023-06-01T12:34:37;10.70;;;5.40;;
54368;SDS011;40266;52.434;17.056;2023-06-01T12:37:23;10.40;;;5.00;;
54368;SDS011;40266;52.434;17.056;2023-06-01T12:40:07;12.30;;;5.20;;
54368;SDS011;40266;52.434;17.056;2023-06-01T12:42:52;13.50;;;5.30;;
54368;SDS011;40266;52.434;17.056;2023-06-01T12:45:36;10.90;;;4.80;;
54368;SDS011;40266;52.434;17.056;2023-06-01T12:48:29;13.80;;;5.50;;
54368;SDS011;40266;52.434;17.056;2023-06-01T12:51:16;10.30;;;5.30;;
54368;SDS011;40266;52.434;17.056;2023-06-01T12:54:04;9.80;;;5.30;;
54368;SDS011;40266;52.434;17.056;2023-06-01T12:56:48;17.00;;;5.50;;
54368;SDS011;40266;52.434;17.056;2023-06-01T12:59:33;10.20;;;5.20;;
54368;SDS011;40266;52.434;17.056;2023-06-01T13:02:16;14.40;;;5.00;;
54368;SDS011;40266;52.434;17.056;2023-06-01T13:04:59;12.40;;;5.80;;
54368;SDS011;40266;52.434;17.056;2023-06-01T13:07:43;12.60;;;5.60;;
54368;SDS011;40266;52.434;17.056;2023-06-01T13:10:27;12.60;;;5.70;;
54368;SDS011;40266;52.434;17.056;2023-06-01T13:13:11;34.40;;;7.50;;
54368;SDS011;40266;52.434;17.056;2023-06-01T13:15:56;14.50;;;5.20;;
54368;SDS011;40266;52.434;17.056;2023-06-01T13:18:39;19.40;;;6.70;;
54368;SDS011;40266;52.434;17.056;2023-06-01T13:21:22;14.30;;;6.00;;
54368;SDS011;40266;52.434;17.056;2023-06-01T13:24:06;13.70;;;5.60;;
54368;SDS011;40266;52.434;17.056;2023-06-01T13:26:50;14.10;;;5.40;;
54368;SDS011;40266;52.434;17.056;2023-06-01T13:29:33;12.50;;;5.10;;
54368;SDS011;40266;52.434;17.056;2023-06-01T13:32:17;14.60;;;5.30;;
54368;SDS011;40266;52.434;17.056;2023-06-01T13:35:01;10.70;;;5.20;;
54368;SDS011;40266;52.434;17.056;2023-06-01T13:37:44;16.20;;;5.50;;
54368;SDS011;40266;52.434;17.056;2023-06-01T13:40:28;14.50;;;5.00;;
54368;SDS011;40266;52.434;17.056;2023-06-01T13:43:13;13.40;;;5.80;;
54368;SDS011;40266;52.434;17.056;2023-06-01T13:45:57;11.90;;;5.60;;
54368;SDS011;40266;52.434;17.056;2023-06-01T13:48:40;18.80;;;6.30;;
54368;SDS011;40266;52.434;17.056;2023-06-01T13:51:24;12.00;;;6.00;;
54368;SDS011;40266;52.434;17.056;2023-06-01T13:54:07;12.30;;;6.10;;
54368;SDS011;40266;52.434;17.056;2023-06-01T13:56:50;12.80;;;5.90;;
54368;SDS011;40266;52.434;17.056;2023-06-01T13:59:34;11.10;;;5.90;;
54368;SDS011;40266;52.434;17.056;2023-06-01T14:02:19;16.60;;;6.80;;
54368;SDS011;40266;52.434;17.056;2023-06-01T14:05:04;16.30;;;7.80;;
54368;SDS011;40266;52.434;17.056;2023-06-01T14:07:50;16.50;;;7.60;;
54368;SDS011;40266;52.434;17.056;2023-06-01T14:10:34;14.60;;;7.70;;
54368;SDS011;40266;52.434;17.056;2023-06-01T14:13:18;16.80;;;8.60;;
54368;SDS011;40266;52.434;17.056;2023-06-01T14:16:02;13.20;;;7.60;;
54368;SDS011;40266;52.434;17.056;2023-06-01T14:18:47;14.50;;;9.00;;
54368;SDS011;40266;52.434;17.056;2023-06-01T14:21:31;17.20;;;8.60;;
54368;SDS011;40266;52.434;17.056;2023-06-01T14:24:15;18.10;;;8.50;;
54368;SDS011;40266;52.434;17.056;2023-06-01T14:26:58;18.40;;;9.50;;
54368;SDS011;40266;52.434;17.056;2023-06-01T14:29:41;25.00;;;10.80;;
54368;SDS011;40266;52.434;17.056;2023-06-01T14:32:26;14.50;;;8.30;;
54368;SDS011;40266;52.434;17.056;2023-06-01T14:35:11;15.60;;;8.80;;
54368;SDS011;40266;52.434;17.056;2023-06-01T14:37:58;26.10;;;9.50;;
54368;SDS011;40266;52.434;17.056;2023-06-01T14:40:43;17.90;;;8.60;;
54368;SDS011;40266;52.434;17.056;2023-06-01T14:43:26;16.90;;;8.60;;
54368;SDS011;40266;52.434;17.056;2023-06-01T14:46:11;13.80;;;7.10;;
54368;SDS011;40266;52.434;17.056;2023-06-01T14:48:55;15.90;;;7.40;;
54368;SDS011;40266;52.434;17.056;2023-06-01T14:51:38;13.10;;;7.80;;
54368;SDS011;40266;52.434;17.056;2023-06-01T14:54:22;12.30;;;7.20;;
54368;SDS011;40266;52.434;17.056;2023-06-01T14:57:20;11.80;;;7.20;;
54368;SDS011;40266;52.434;17.056;2023-06-01T15:00:03;15.80;;;8.00;;
54368;SDS011;40266;52.434;17.056;2023-06-01T15:02:47;15.30;;;6.60;;
54368;SDS011;40266;52.434;17.056;2023-06-01T15:05:32;14.50;;;6.60;;
54368;SDS011;40266;52.434;17.056;2023-06-01T15:08:16;24.80;;;7.20;;
54368;SDS011;40266;52.434;17.056;2023-06-01T15:11:00;15.00;;;6.60;;
54368;SDS011;40266;52.434;17.056;2023-06-01T15:13:43;13.70;;;6.30;;
54368;SDS011;40266;52.434;17.056;2023-06-01T15:16:28;15.60;;;6.00;;
54368;SDS011;40266;52.434;17.056;2023-06-01T15:19:12;7.50;;;5.70;;
54368;SDS011;40266;52.434;17.056;2023-06-01T15:21:56;12.40;;;6.10;;
54368;SDS011;40266;52.434;17.056;2023-06-01T15:24:40;12.20;;;6.00;;
54368;SDS011;40266;52.434;17.056;2023-06-01T15:27:24;9.50;;;6.00;;
54368;SDS011;40266;52.434;17.056;2023-06-01T15:30:07;13.70;;;6.50;;
54368;SDS011;40266;52.434;17.056;2023-06-01T15:32:53;14.60;;;6.60;;
54368;SDS011;40266;52.434;17.056;2023-06-01T15:35:50;12.90;;;6.20;;
54368;SDS011;40266;52.434;17.056;2023-06-01T15:38:34;11.00;;;5.70;;
54368;SDS011;40266;52.434;17.056;2023-06-01T15:41:18;9.70;;;5.70;;
54368;SDS011;40266;52.434;17.056;2023-06-01T15:44:02;13.10;;;5.30;;
54368;SDS011;40266;52.434;17.056;2023-06-01T15:46:45;11.30;;;5.30;;
54368;SDS011;40266;52.434;17.056;2023-06-01T15:49:31;10.40;;;6.00;;
54368;SDS011;40266;52.434;17.056;2023-06-01T15:52:15;12.00;;;6.30;;
54368;SDS011;40266;52.434;17.056;2023-06-01T15:54:59;9.80;;;6.00;;
54368;SDS011;40266;52.434;17.056;2023-06-01T15:57:43;8.30;;;5.70;;
54368;SDS011;40266;52.434;17.056;2023-06-01T16:00:27;13.10;;;6.00;;
54368;SDS011;40266;52.434;17.056;2023-06-01T16:03:10;15.30;;;5.80;;
54368;SDS011;40266;52.434;17.056;2023-06-01T16:05:54;10.10;;;5.50;;
54368;SDS011;40266;52.434;17.056;2023-06-01T16:08:37;13.40;;;5.40;;
54368;SDS011;40266;52.434;17.056;2023-06-01T16:11:21;8.40;;;5.50;;
54368;SDS011;40266;52.434;17.056;2023-06-01T16:14:04;17.30;;;4.70;;
54368;SDS011;40266;52.434;17.056;2023-06-01T16:16:52;11.00;;;4.50;;
54368;SDS011;40266;52.434;17.056;2023-06-01T16:19:38;8.50;;;4.80;;
54368;SDS011;40266;52.434;17.056;2023-06-01T16:22:23;10.30;;;4.80;;
54368;SDS011;40266;52.434;17.056;2023-06-01T16:28:42;10.70;;;4.20;;
54368;SDS011;40266;52.434;17.056;2023-06-01T16:31:25;10.50;;;4.50;;
54368;SDS011;40266;52.434;17.056;2023-06-01T16:37:36;24.50;;;6.10;;
54368;SDS011;40266;52.434;17.056;2023-06-01T16:40:20;46.70;;;37.30;;
54368;SDS011;40266;52.434;17.056;2023-06-01T16:43:03;20.90;;;10.90;;
54368;SDS011;40266;52.434;17.056;2023-06-01T16:45:47;43.50;;;28.20;;
54368;SDS011;40266;52.434;17.056;2023-06-01T16:48:31;34.60;;;20.50;;